Aviation Digital Data Service (ADDS)

Output produced by METARs form (0538 UTC 21 January 2019)
found at http://www.aviationweather.gov/metar/data/
 
Forecast for: UTNN (NUKUS/KARAKALPAK, UZ)
Text: TAF UTNN 210500Z 2106/2206 24010G20KT 5000 BR OVC010
Forecast period: 0600 UTC 21 January 2019 to 0600 UTC 22 January 2019
Forecast type: FROM: standard forecast or significant change
Winds: from the WSW (240 degrees) at 12 MPH (10 knots; 5.1 m/s)
gusting to 23 MPH (20 knots; 10.3 m/s)
Visibility: 3 miles (5 km)
Ceiling: 1000 feet AGL
Clouds: overcast cloud deck at 1000 feet AGL
Weather: BR  (mist)
Text: TEMPO 2106/2112 -SNRA OVC005
Forecast period: 0600 to 1200 UTC 21 January 2019
Forecast type: TEMPORARY: The following changes expected for less than half the time period
Visibility: missing
Ceiling: 500 feet AGL
Clouds: overcast cloud deck at 500 feet AGL
Weather: -SN -RA  (light snow, light rain)